Time;durP1;ratioP1;P1;durP2;ratioP2;P2;SDS_P1;SDS_P2;PMS_P1;PMS_P2;Temp;Humidity;BMP_temperature;BMP_pressure;BME280_temperature;BME280_humidity;BME280_pressure;Samples;Min_cycle;Max_cycle;Signal;HPM_P1;HPM_P2
2021/09/18 00:01:36;;;;;;;2.60;2.40;;;;;;;7.22;70.53;98983.88;5040808;28;20451;-74
2021/09/18 00:04:05;;;;;;;2.45;2.28;;;;;;;7.16;70.87;98989.66;5039825;28;20044;-75
2021/09/18 00:06:34;;;;;;;2.45;2.25;;;;;;;7.23;70.57;98988.25;5041339;28;20048;-75
2021/09/18 00:09:00;;;;;;;2.90;2.20;;;;;;;7.28;70.56;98983.44;5024035;28;20050;-75
2021/09/18 00:11:26;;;;;;;2.92;2.40;;;;;;;7.38;70.34;98987.16;5056890;28;20041;-76
2021/09/18 00:13:52;;;;;;;4.32;1.92;;;;;;;7.40;70.05;98979.91;5057063;28;20048;-75
2021/09/18 00:16:18;;;;;;;3.40;2.45;;;;;;;7.44;69.74;98988.50;5023974;28;20040;-75
2021/09/18 00:18:44;;;;;;;2.65;2.22;;;;;;;7.38;69.66;98987.16;5023741;28;20071;-76
2021/09/18 00:21:10;;;;;;;2.25;2.05;;;;;;;7.51;69.51;98997.72;5040568;28;20051;-77
2021/09/18 00:23:36;;;;;;;2.42;2.20;;;;;;;7.49;69.27;98999.69;5073176;28;20041;-74
2021/09/18 00:26:02;;;;;;;2.25;2.03;;;;;;;7.45;68.97;98987.56;5039776;28;20071;-75
2021/09/18 00:28:28;;;;;;;2.25;2.10;;;;;;;7.23;68.84;98956.38;5024325;28;20036;-74
2021/09/18 00:30:54;;;;;;;3.05;2.15;;;;;;;7.47;68.75;99005.09;5080268;28;20041;-75
2021/09/18 00:33:20;;;;;;;2.65;2.08;;;;;;;7.47;68.74;98999.75;5072649;28;20488;-74
2021/09/18 00:35:46;;;;;;;2.00;1.90;;;;;;;7.37;68.39;98996.09;5022781;28;20143;-76
2021/09/18 00:38:13;;;;;;;2.30;1.98;;;;;;;7.33;68.01;98989.28;5033487;28;20048;-76
2021/09/18 00:40:40;;;;;;;3.05;1.95;;;;;;;7.37;68.48;98995.22;5077347;28;20531;-76
2021/09/18 00:43:06;;;;;;;1.90;1.80;;;;;;;7.28;68.46;98975.47;5043800;28;20449;-75
2021/09/18 00:45:32;;;;;;;2.00;1.90;;;;;;;7.33;68.08;98978.63;5077039;28;20047;-76
2021/09/18 00:47:58;;;;;;;2.20;2.10;;;;;;;7.22;68.63;98981.22;5071933;28;20078;-75
2021/09/18 00:50:24;;;;;;;2.25;2.05;;;;;;;7.26;68.73;98980.06;5040246;28;20046;-75
2021/09/18 00:52:50;;;;;;;2.40;1.98;;;;;;;7.19;68.85;98981.47;5024000;28;20032;-75
2021/09/18 00:55:16;;;;;;;2.10;2.00;;;;;;;7.05;69.17;98962.03;5040450;28;20059;-76
2021/09/18 00:57:42;;;;;;;1.92;1.83;;;;;;;7.13;69.32;98981.91;5056477;28;20047;-75
2021/09/18 01:00:10;;;;;;;2.63;2.20;;;;;;;7.25;69.16;98975.69;5023736;28;20056;-75
2021/09/18 01:02:36;;;;;;;2.30;2.10;;;;;;;7.15;69.32;98956.91;5057088;28;20411;-76
2021/09/18 01:05:03;;;;;;;1.95;1.85;;;;;;;7.17;69.17;98964.78;5040294;28;20035;-76
2021/09/18 01:07:29;;;;;;;2.50;2.30;;;;;;;7.24;69.25;98960.72;5040491;28;20036;-75
2021/09/18 01:09:56;;;;;;;1.98;1.85;;;;;;;7.20;69.31;98951.25;5040204;28;20079;-74
2021/09/18 01:12:21;;;;;;;2.13;1.92;;;;;;;7.14;69.71;98972.97;5023646;28;20114;-76
2021/09/18 01:14:48;;;;;;;2.58;2.13;;;;;;;7.00;69.94;98960.69;5040061;28;20551;-75
2021/09/18 01:17:15;;;;;;;2.15;1.95;;;;;;;7.08;69.89;98976.06;5040231;28;20032;-75
2021/09/18 01:19:41;;;;;;;2.15;1.95;;;;;;;7.05;70.03;98970.00;5056718;28;20048;-75
2021/09/18 01:22:07;;;;;;;2.10;2.00;;;;;;;6.96;70.18;98965.38;5057002;28;20121;-74
2021/09/18 01:24:34;;;;;;;2.33;2.13;;;;;;;6.99;70.22;98964.28;5056446;28;20559;-75
2021/09/18 01:27:00;;;;;;;2.17;1.98;;;;;;;6.87;70.92;98955.38;5039891;28;20049;-75
2021/09/18 01:29:26;;;;;;;2.35;2.00;;;;;;;6.84;70.96;98966.22;5072660;28;20139;-77
2021/09/18 01:31:52;;;;;;;2.15;1.85;;;;;;;6.83;70.94;98959.22;5059356;28;20044;-74
2021/09/18 01:34:19;;;;;;;2.00;1.90;;;;;;;6.84;70.56;98962.69;5059330;28;20050;-74
2021/09/18 01:36:45;;;;;;;3.17;2.05;;;;;;;6.66;70.57;98915.25;5041632;28;20546;-74
2021/09/18 01:39:13;;;;;;;2.00;1.90;;;;;;;6.84;70.22;98960.91;5075837;28;20480;-75
2021/09/18 01:41:39;;;;;;;1.85;1.75;;;;;;;6.69;69.88;98952.19;5076314;28;20042;-75
2021/09/18 01:44:05;;;;;;;2.20;2.10;;;;;;;6.80;70.11;98967.38;5075850;28;20101;-74
2021/09/18 01:46:31;;;;;;;1.80;1.70;;;;;;;6.70;69.93;98932.66;5092614;28;20039;-76
2021/09/18 01:48:57;;;;;;;2.75;1.98;;;;;;;6.85;69.58;98953.81;5059186;28;20050;-76
2021/09/18 01:51:24;;;;;;;1.80;1.70;;;;;;;6.71;69.68;98939.66;5042587;28;20165;-75
2021/09/18 01:53:50;;;;;;;2.85;2.10;;;;;;;6.88;69.46;98961.53;5059010;28;20036;-75
2021/09/18 01:56:16;;;;;;;1.75;1.65;;;;;;;6.78;69.62;98966.66;5075394;28;20070;-75
2021/09/18 01:58:42;;;;;;;1.77;1.67;;;;;;;6.79;69.23;98944.44;5042192;28;20096;-77
2021/09/18 02:01:08;;;;;;;2.13;1.83;;;;;;;6.84;69.13;98963.56;5042716;28;20048;-75
2021/09/18 02:03:34;;;;;;;2.33;1.55;;;;;;;6.73;69.51;98959.03;5075522;28;20134;-76
2021/09/18 02:06:00;;;;;;;1.90;1.80;;;;;;;6.80;69.46;98960.25;5075559;28;20075;-75
2021/09/18 02:08:26;;;;;;;2.00;1.80;;;;;;;6.66;69.32;98964.88;5042276;28;20055;-76
2021/09/18 02:10:52;;;;;;;1.88;1.77;;;;;;;6.60;69.42;98973.25;5059004;28;20059;-76
2021/09/18 02:13:19;;;;;;;1.80;1.67;;;;;;;6.67;69.35;98963.91;5025700;28;20115;-76
2021/09/18 02:15:45;;;;;;;2.38;2.13;;;;;;;6.68;69.73;98965.59;5042036;28;20169;-76
2021/09/18 02:18:11;;;;;;;1.90;1.70;;;;;;;6.78;69.35;98969.31;5055988;28;20499;-76
2021/09/18 02:20:37;;;;;;;1.80;1.70;;;;;;;6.69;68.86;98962.81;5038584;28;20040;-75
2021/09/18 02:23:04;;;;;;;1.80;1.70;;;;;;;6.72;69.21;98972.41;5022257;28;20506;-76
2021/09/18 02:25:30;;;;;;;1.83;1.73;;;;;;;6.50;69.62;98962.41;5038437;28;20174;-76
2021/09/18 02:27:56;;;;;;;2.30;2.00;;;;;;;6.53;69.98;98971.00;5054911;28;20084;-75
2021/09/18 02:30:23;;;;;;;1.80;1.70;;;;;;;6.44;70.64;98963.69;5038612;28;20036;-76
2021/09/18 02:32:49;;;;;;;2.10;2.00;;;;;;;6.48;70.50;98970.50;5039175;28;20493;-74
2021/09/18 02:35:17;;;;;;;2.47;2.28;;;;;;;6.44;71.33;98979.63;5054602;28;20052;-75
2021/09/18 02:37:43;;;;;;;2.55;2.10;;;;;;;6.53;70.86;98968.34;5021924;28;20044;-76
2021/09/18 02:40:10;;;;;;;2.10;2.00;;;;;;;6.67;70.85;98971.88;5021839;28;20063;-75
2021/09/18 02:42:37;;;;;;;3.08;2.00;;;;;;;6.64;71.01;98977.41;5022254;28;20055;-76
2021/09/18 02:45:04;;;;;;;2.45;2.10;;;;;;;6.48;70.92;98957.22;5005558;28;20076;-76
2021/09/18 02:47:30;;;;;;;2.25;2.05;;;;;;;6.63;70.79;98970.41;5054559;28;20037;-74
2021/09/18 02:49:57;;;;;;;2.40;2.20;;;;;;;6.75;70.49;98980.16;5022042;28;20131;-77
2021/09/18 02:52:23;;;;;;;2.70;2.50;;;;;;;6.83;70.19;98980.47;5021696;28;20048;-75
2021/09/18 02:54:49;;;;;;;2.58;2.38;;;;;;;6.81;70.28;98961.13;5021717;28;20131;-76
2021/09/18 02:57:15;;;;;;;2.58;2.38;;;;;;;6.91;70.28;98972.78;5038054;28;20564;-76
2021/09/18 02:59:41;;;;;;;2.60;2.40;;;;;;;6.96;70.14;98973.34;5037986;28;20048;-77
2021/09/18 03:02:07;;;;;;;2.45;2.25;;;;;;;6.93;69.78;98965.56;5005484;28;20040;-76
2021/09/18 03:04:33;;;;;;;2.50;2.30;;;;;;;6.89;70.35;98980.03;5071257;28;20044;-75
2021/09/18 03:06:59;;;;;;;2.22;2.03;;;;;;;6.85;69.89;98978.56;5038466;28;20056;-76
2021/09/18 03:09:25;;;;;;;2.40;2.20;;;;;;;6.66;70.40;98970.19;5021538;28;20040;-75
2021/09/18 03:11:51;;;;;;;4.53;2.50;;;;;;;6.75;70.44;98966.88;5038285;28;20044;-77
2021/09/18 03:14:17;;;;;;;2.83;2.17;;;;;;;6.84;70.69;98974.19;5038151;28;20127;-76
2021/09/18 03:16:43;;;;;;;2.58;2.30;;;;;;;7.04;69.95;98967.47;5005465;28;20048;-75
2021/09/18 03:19:09;;;;;;;2.40;2.20;;;;;;;7.02;69.88;98964.06;5054417;28;20040;-75
2021/09/18 03:21:35;;;;;;;2.40;2.20;;;;;;;6.95;69.59;98974.25;5038028;28;20101;-74
2021/09/18 03:24:01;;;;;;;2.13;2.00;;;;;;;6.73;70.09;98963.47;5038028;28;20131;-75
2021/09/18 03:26:27;;;;;;;2.22;2.10;;;;;;;6.77;69.95;98983.53;5037910;28;20056;-76
2021/09/18 03:28:53;;;;;;;4.82;2.38;;;;;;;6.80;70.04;98980.66;5021291;28;20040;-76
2021/09/18 03:31:19;;;;;;;1.95;1.85;;;;;;;6.89;69.51;98985.34;5021883;28;20464;-77
2021/09/18 03:33:45;;;;;;;2.15;2.05;;;;;;;6.70;69.73;98966.34;5005244;28;20047;-77
2021/09/18 03:36:11;;;;;;;2.10;2.00;;;;;;;6.64;70.06;98980.91;5037531;28;20526;-76
2021/09/18 03:38:37;;;;;;;4.75;2.13;;;;;;;6.73;69.74;98966.13;5054324;28;20044;-74
2021/09/18 03:41:03;;;;;;;2.72;2.25;;;;;;;6.90;69.49;98987.03;5004916;28;20134;-76
2021/09/18 03:43:29;;;;;;;2.35;2.15;;;;;;;6.93;69.45;98981.50;5054257;28;20070;-77
2021/09/18 03:45:55;;;;;;;3.55;2.13;;;;;;;7.00;69.80;98982.78;5037725;28;20044;-77
2021/09/18 03:48:21;;;;;;;2.53;2.33;;;;;;;6.95;69.45;98982.25;5054354;28;20579;-75
2021/09/18 03:50:47;;;;;;;2.28;2.17;;;;;;;6.99;69.18;98985.53;5022009;28;20047;-77
2021/09/18 03:53:13;;;;;;;3.47;2.33;;;;;;;6.89;68.91;98974.72;5021557;28;20135;-77
2021/09/18 03:55:39;;;;;;;2.22;2.10;;;;;;;7.09;68.73;98985.75;5037709;28;20120;-76
2021/09/18 03:58:05;;;;;;;2.00;1.90;;;;;;;7.08;68.47;98990.22;5037729;28;20059;-74
2021/09/18 04:00:32;;;;;;;2.53;2.10;;;;;;;7.16;68.44;98981.69;5023693;28;20104;-77
2021/09/18 04:02:58;;;;;;;2.10;2.00;;;;;;;7.03;68.60;98987.00;5041070;28;20041;-77
2021/09/18 04:05:24;;;;;;;3.70;2.22;;;;;;;7.13;68.16;98976.59;5057843;28;20110;-79
2021/09/18 04:07:50;;;;;;;3.40;2.30;;;;;;;7.27;68.39;98987.06;5008374;28;20039;-76
2021/09/18 04:10:16;;;;;;;2.47;2.28;;;;;;;7.18;68.39;98985.06;5057939;28;20033;-77
2021/09/18 04:12:42;;;;;;;2.53;2.13;;;;;;;7.47;68.15;98981.16;5024869;28;20052;-79
2021/09/18 04:15:08;;;;;;;2.83;2.40;;;;;;;7.63;67.51;98980.03;5074147;28;20051;-77
2021/09/18 04:17:34;;;;;;;3.35;2.22;;;;;;;7.77;67.10;98987.84;5057436;28;20477;-76
2021/09/18 04:20:00;;;;;;;2.60;2.40;;;;;;;7.74;66.61;98998.69;5074185;28;20058;-78
2021/09/18 04:22:26;;;;;;;2.63;2.20;;;;;;;7.57;66.90;98975.19;5074029;28;20471;-76
2021/09/18 04:24:52;;;;;;;2.45;2.25;;;;;;;7.58;67.33;98998.13;5040686;28;20064;-79
2021/09/18 04:27:18;;;;;;;3.92;2.30;;;;;;;7.66;67.02;98991.28;5044568;28;20048;-78
2021/09/18 04:29:44;;;;;;;2.40;2.20;;;;;;;7.70;66.72;98992.75;5063622;28;20067;-78
2021/09/18 04:32:10;;;;;;;2.65;2.38;;;;;;;7.60;67.02;98996.19;5060617;28;20044;-78
2021/09/18 04:34:36;;;;;;;2.47;2.28;;;;;;;7.52;67.40;98994.97;5044011;28;20104;-77
2021/09/18 04:37:03;;;;;;;3.53;2.45;;;;;;;7.43;67.50;99003.63;5076609;28;20698;-80
2021/09/18 04:39:29;;;;;;;3.10;2.40;;;;;;;7.27;68.23;99009.19;5058707;28;20541;-76
2021/09/18 04:41:55;;;;;;;3.33;2.35;;;;;;;7.25;68.30;99015.56;5088216;28;20127;-79
2021/09/18 04:44:21;;;;;;;3.88;2.55;;;;;;;7.30;68.23;98998.34;5044113;28;20036;-78
2021/09/18 04:46:47;;;;;;;3.22;2.58;;;;;;;7.40;67.86;99017.13;5060098;28;20127;-78
2021/09/18 04:49:13;;;;;;;3.17;2.83;;;;;;;7.41;67.54;99013.53;5076721;28;20063;-77
2021/09/18 04:51:39;;;;;;;2.83;2.60;;;;;;;7.47;67.46;99009.56;5059457;28;20044;-76
2021/09/18 04:54:05;;;;;;;3.47;2.97;;;;;;;7.60;67.20;99012.16;5022775;28;20127;-78
2021/09/18 04:56:31;;;;;;;2.80;2.60;;;;;;;7.72;67.03;99008.63;5015801;28;20546;-79
2021/09/18 04:58:57;;;;;;;5.00;2.90;;;;;;;7.66;66.94;99011.72;5050231;28;20127;-81
2021/09/18 05:01:23;;;;;;;3.15;2.70;;;;;;;7.77;66.63;99011.78;5026632;28;20039;-77
2021/09/18 05:03:49;;;;;;;5.40;2.88;;;;;;;7.83;66.69;99013.16;5093266;28;20336;-76
2021/09/18 05:06:15;;;;;;;4.32;2.90;;;;;;;7.81;66.15;99015.91;5076222;28;20079;-79
2021/09/18 05:08:41;;;;;;;5.47;2.78;;;;;;;7.73;66.24;99012.97;5059642;28;20032;-78
2021/09/18 05:11:07;;;;;;;3.00;2.70;;;;;;;7.73;65.79;99023.63;5026673;28;20070;-80
2021/09/18 05:13:33;;;;;;;2.97;2.63;;;;;;;7.54;66.14;99003.69;5076348;28;20092;-78
2021/09/18 05:15:59;;;;;;;3.10;2.80;;;;;;;7.76;66.04;99028.72;5092903;28;20051;-76
2021/09/18 05:18:25;;;;;;;2.92;2.53;;;;;;;7.82;65.22;99014.94;5076049;28;20094;-77
2021/09/18 05:20:51;;;;;;;3.85;2.90;;;;;;;8.04;65.08;99033.69;5042637;28;20044;-77
2021/09/18 05:23:17;;;;;;;2.55;2.35;;;;;;;7.93;65.02;99019.47;5090758;28;20051;-79
2021/09/18 05:25:43;;;;;;;3.85;2.38;;;;;;;7.99;65.02;99011.91;5055858;28;20044;-77
2021/09/18 05:28:09;;;;;;;2.70;2.50;;;;;;;7.96;64.21;98985.50;5038561;28;20040;-78
2021/09/18 05:30:35;;;;;;;2.60;2.30;;;;;;;7.93;64.07;99004.34;5055274;28;20040;-78
2021/09/18 05:33:01;;;;;;;3.63;2.70;;;;;;;8.16;63.68;99015.09;5038537;28;20121;-75
2021/09/18 05:35:27;;;;;;;5.18;2.88;;;;;;;7.93;63.50;99008.84;5054876;28;20052;-79
2021/09/18 05:37:53;;;;;;;2.60;2.40;;;;;;;8.16;63.55;99020.41;5054690;28;20044;-79
2021/09/18 05:40:24;;;;;;;2.80;2.60;;;;;;;8.26;62.73;99011.63;5038846;28;20045;-77
2021/09/18 05:42:51;;;;;;;2.22;2.03;;;;;;;8.24;62.30;98996.75;5040081;28;20044;-77
2021/09/18 05:45:17;;;;;;;2.95;2.38;;;;;;;8.41;61.34;99014.97;5038432;28;20145;-79
2021/09/18 05:47:43;;;;;;;3.30;2.10;;;;;;;8.64;60.83;99015.03;5038478;28;20504;-78
2021/09/18 05:50:09;;;;;;;4.50;2.40;;;;;;;8.83;60.55;99015.28;5038727;28;20036;-76
2021/09/18 05:52:35;;;;;;;3.15;2.20;;;;;;;8.88;59.20;99021.13;5054591;28;20053;-76
2021/09/18 05:55:01;;;;;;;2.40;1.85;;;;;;;8.84;59.36;99017.00;5039261;28;20090;-76
2021/09/18 05:57:28;;;;;;;2.05;1.75;;;;;;;8.58;59.75;99026.16;5054683;28;20041;-76
2021/09/18 05:59:54;;;;;;;4.35;2.28;;;;;;;8.64;60.49;99012.34;5054610;28;20106;-76
2021/09/18 06:02:21;;;;;;;2.45;2.00;;;;;;;8.47;61.15;99030.50;5055010;28;20090;-76
2021/09/18 06:04:47;;;;;;;6.53;2.72;;;;;;;8.30;62.34;99033.53;5054809;28;20058;-77
2021/09/18 06:07:13;;;;;;;3.42;2.10;;;;;;;8.23;62.40;99026.97;5037329;28;20150;-80
2021/09/18 06:09:39;;;;;;;2.05;1.83;;;;;;;8.06;62.86;99035.41;5054425;28;20491;-76
2021/09/18 06:12:05;;;;;;;2.47;2.28;;;;;;;8.19;62.89;99014.88;5054319;28;20045;-77
2021/09/18 06:14:31;;;;;;;2.67;2.03;;;;;;;8.20;63.29;99024.56;5037904;28;20044;-76
2021/09/18 06:16:57;;;;;;;1.90;1.75;;;;;;;8.33;63.34;99012.00;5054034;28;20036;-77
2021/09/18 06:19:23;;;;;;;3.35;2.53;;;;;;;8.79;62.95;99027.16;5054482;28;20094;-76
2021/09/18 06:21:49;;;;;;;5.45;1.90;;;;;;;8.89;61.24;99009.47;5037086;28;20040;-77
2021/09/18 06:24:15;;;;;;;2.72;2.20;;;;;;;9.17;60.96;99029.47;5054024;28;20066;-78
2021/09/18 06:26:41;;;;;;;2.58;1.90;;;;;;;9.12;60.03;99036.16;5054140;28;20044;-80
2021/09/18 06:29:07;;;;;;;1.88;1.70;;;;;;;8.65;61.43;99048.69;5054476;28;20406;-78
2021/09/18 06:31:33;;;;;;;1.90;1.80;;;;;;;8.80;61.34;99036.88;5054123;28;20040;-78
2021/09/18 06:34:00;;;;;;;2.33;1.80;;;;;;;8.88;61.17;99029.13;5054630;28;20093;-79
2021/09/18 06:36:25;;;;;;;2.75;1.80;;;;;;;8.98;61.00;99019.41;5037206;28;20064;-77
2021/09/18 06:38:52;;;;;;;2.33;1.92;;;;;;;9.18;60.71;99007.19;5054697;28;20507;-78
2021/09/18 06:41:18;;;;;;;2.80;1.70;;;;;;;9.32;59.87;99011.41;5053944;28;20421;-78
2021/09/18 06:43:44;;;;;;;3.80;2.05;;;;;;;9.70;59.76;99023.47;5054210;28;20045;-77
2021/09/18 06:46:10;;;;;;;1.65;1.55;;;;;;;9.66;59.15;99014.84;5037245;28;20541;-78
2021/09/18 06:48:36;;;;;;;1.60;1.50;;;;;;;9.52;59.30;99039.16;5038072;28;20059;-78
2021/09/18 06:51:02;;;;;;;1.63;1.52;;;;;;;9.28;59.44;99015.28;5037545;28;20094;-78
2021/09/18 06:53:28;;;;;;;1.88;1.33;;;;;;;8.90;60.25;99032.50;5054433;28;20102;-78
2021/09/18 06:55:54;;;;;;;1.83;1.63;;;;;;;8.66;61.79;99055.72;5054079;28;20139;-76
2021/09/18 06:58:20;;;;;;;1.73;1.40;;;;;;;8.31;63.52;99061.88;5037838;28;20095;-80
2021/09/18 07:00:46;;;;;;;3.38;2.03;;;;;;;8.21;64.91;99061.72;5021038;28;20525;-77
2021/09/18 07:03:12;;;;;;;1.60;1.50;;;;;;;7.94;65.45;99056.66;5024385;28;20040;-78
2021/09/18 07:05:39;;;;;;;5.00;2.20;;;;;;;8.00;67.00;99063.31;5045822;28;20098;-78
2021/09/18 07:08:06;;;;;;;2.67;1.88;;;;;;;8.27;65.98;99063.06;5038500;28;20509;-77
2021/09/18 07:10:32;;;;;;;1.50;1.40;;;;;;;8.29;65.43;99066.47;5037903;28;20039;-79
2021/09/18 07:12:58;;;;;;;1.52;1.42;;;;;;;8.15;66.19;99050.69;5022188;28;20380;-78
2021/09/18 07:15:24;;;;;;;1.75;1.65;;;;;;;8.25;66.57;99054.34;5038687;28;20055;-77
2021/09/18 07:17:50;;;;;;;1.45;1.35;;;;;;;8.20;65.35;99062.69;5058351;28;20048;-79
2021/09/18 07:20:16;;;;;;;0.98;0.98;;;;;;;8.15;63.88;99062.16;5024953;28;20056;-82
2021/09/18 07:22:42;;;;;;;1.00;1.00;;;;;;;8.17;63.17;99062.06;5021916;28;20045;-77
2021/09/18 07:25:09;;;;;;;1.15;1.00;;;;;;;8.20;64.08;99056.53;5021761;28;20064;-77
2021/09/18 07:27:35;;;;;;;1.13;1.10;;;;;;;8.61;64.47;99042.72;5037550;28;20052;-78
2021/09/18 07:30:02;;;;;;;1.60;1.50;;;;;;;9.02;63.56;99062.69;5037346;28;20131;-78
2021/09/18 07:32:28;;;;;;;1.20;1.10;;;;;;;9.27;63.54;99061.59;5070840;28;20135;-79
2021/09/18 07:34:54;;;;;;;1.50;1.40;;;;;;;9.39;62.57;99081.97;5076300;28;20051;-76
2021/09/18 07:37:20;;;;;;;1.48;1.38;;;;;;;9.36;61.05;99071.53;5060319;28;20109;-78
2021/09/18 07:39:46;;;;;;;1.52;1.42;;;;;;;9.22;61.31;99058.47;5077964;28;20123;-77
2021/09/18 07:42:12;;;;;;;2.05;1.77;;;;;;;9.13;61.98;99057.34;5044330;28;20058;-77
2021/09/18 07:44:38;;;;;;;2.65;1.80;;;;;;;9.43;62.37;99056.75;5044437;28;20176;-77
2021/09/18 07:47:04;;;;;;;1.77;1.60;;;;;;;10.18;61.17;99047.09;5048198;28;20450;-77
2021/09/18 07:49:30;;;;;;;2.38;1.77;;;;;;;10.19;59.33;99038.09;5024640;28;20072;-78
2021/09/18 07:51:56;;;;;;;2.22;2.03;;;;;;;10.42;59.86;99050.44;5040478;28;20048;-78
2021/09/18 07:54:22;;;;;;;2.40;2.20;;;;;;;10.55;58.91;99033.38;5040728;28;20094;-77
2021/09/18 07:56:48;;;;;;;2.22;2.05;;;;;;;10.78;58.80;99058.13;5057213;28;20051;-78
2021/09/18 07:59:14;;;;;;;3.70;2.30;;;;;;;10.80;57.86;99061.53;5073578;28;20133;-77
2021/09/18 08:01:40;;;;;;;2.53;2.33;;;;;;;10.70;57.54;99048.09;5023964;28;20135;-78
2021/09/18 08:04:06;;;;;;;3.70;2.42;;;;;;;10.87;57.68;99055.53;5057258;28;20261;-78
2021/09/18 08:06:34;;;;;;;2.65;2.00;;;;;;;10.96;57.19;99047.69;5040072;28;20121;-78
2021/09/18 08:09:04;;;;;;;2.38;2.17;;;;;;;11.35;57.07;99044.19;5057055;28;20071;-77
2021/09/18 08:11:30;;;;;;;2.97;2.50;;;;;;;11.03;57.89;99063.06;5056497;28;20048;-78
2021/09/18 08:13:57;;;;;;;2.67;2.47;;;;;;;10.25;58.38;99059.00;5040640;28;20055;-77
2021/09/18 08:16:23;;;;;;;4.32;3.03;;;;;;;9.94;59.23;99056.16;5046433;28;20032;-78
2021/09/18 08:18:50;;;;;;;3.97;2.85;;;;;;;9.90;59.33;99049.38;5023803;28;20047;-78
2021/09/18 08:21:16;;;;;;;4.70;2.38;;;;;;;10.15;58.95;99052.69;5056197;28;20052;-79
2021/09/18 08:23:42;;;;;;;3.03;2.53;;;;;;;10.22;58.93;99051.22;5056785;28;20071;-76
2021/09/18 08:26:09;;;;;;;3.13;2.22;;;;;;;10.21;56.93;99045.03;5056767;28;20048;-77
2021/09/18 08:28:35;;;;;;;2.47;1.80;;;;;;;10.19;57.04;99048.78;5057318;28;20049;-77
2021/09/18 08:31:02;;;;;;;2.50;2.30;;;;;;;10.50;55.20;99038.25;5056667;28;20491;-79
2021/09/18 08:33:28;;;;;;;2.72;2.40;;;;;;;10.50;55.97;99075.69;5023491;28;20143;-79
2021/09/18 08:35:54;;;;;;;2.55;2.00;;;;;;;10.16;55.92;99057.09;5056046;28;20060;-78
2021/09/18 08:38:21;;;;;;;3.28;2.97;;;;;;;10.19;56.41;99084.38;5056518;28;20045;-79
2021/09/18 08:40:49;;;;;;;2.00;1.83;;;;;;;10.29;56.77;99099.69;5056805;28;20516;-78
2021/09/18 08:43:15;;;;;;;1.83;1.73;;;;;;;10.18;55.55;99084.50;5056547;28;20128;-78
2021/09/18 08:45:41;;;;;;;1.77;1.67;;;;;;;10.35;54.21;99073.31;5056058;28;20290;-77
2021/09/18 08:48:08;;;;;;;1.85;1.60;;;;;;;10.32;54.11;99056.69;5072848;28;20040;-80
2021/09/18 08:50:35;;;;;;;1.40;1.30;;;;;;;10.82;53.79;99078.28;5074010;28;20076;-79
2021/09/18 08:53:01;;;;;;;1.30;1.20;;;;;;;11.18;53.63;99079.63;5059714;28;20052;-78
2021/09/18 08:55:27;;;;;;;2.17;1.30;;;;;;;11.27;51.71;99077.97;5059456;28;20036;-78
2021/09/18 08:57:54;;;;;;;1.25;1.20;;;;;;;11.22;48.96;99074.88;5026856;28;20039;-78
2021/09/18 09:00:32;;;;;;;4.25;1.40;;;;;;;11.28;48.96;99075.16;5056288;28;20440;-79
2021/09/18 09:03:04;;;;;;;3.05;1.52;;;;;;;11.82;48.55;99078.47;5072157;28;20048;-77
2021/09/18 09:05:32;;;;;;;1.60;1.50;;;;;;;12.08;47.78;99063.59;5039926;28;20373;-78
2021/09/18 09:08:04;;;;;;;1.92;1.52;;;;;;;12.37;46.92;99077.03;5072807;28;20449;-78
2021/09/18 09:10:30;;;;;;;3.65;1.67;;;;;;;12.28;47.11;99091.25;5056137;28;20535;-79
2021/09/18 09:13:06;;;;;;;1.50;1.40;;;;;;;11.71;50.25;99106.19;5039612;28;20040;-78
2021/09/18 09:15:32;;;;;;;4.10;1.23;;;;;;;11.13;52.27;99112.13;5040349;28;20041;-78
2021/09/18 09:18:22;;;;;;;1.13;1.13;;;;;;;10.62;54.28;99096.88;5023093;28;20127;-79
2021/09/18 09:20:51;;;;;;;1.52;1.42;;;;;;;10.67;53.96;99094.63;5027352;28;20044;-79
2021/09/18 09:23:19;;;;;;;1.42;1.33;;;;;;;11.05;53.50;99101.22;5056526;28;20063;-77
2021/09/18 09:25:50;;;;;;;1.50;1.40;;;;;;;11.64;51.34;99080.94;5039674;28;20128;-79
2021/09/18 09:28:37;;;;;;;2.83;1.15;;;;;;;12.35;50.00;99080.84;5039038;28;20106;-78
2021/09/18 09:31:15;;;;;;;2.30;1.02;;;;;;;12.49;47.43;99092.97;5039768;28;20123;-78
2021/09/18 09:34:18;;;;;;;1.20;1.10;;;;;;;12.51;45.19;99075.75;5073602;28;20037;-80
2021/09/18 09:36:51;;;;;;;1.58;1.10;;;;;;;12.42;44.88;99076.59;5073361;28;20056;-79
2021/09/18 09:39:22;;;;;;;1.73;1.20;;;;;;;12.89;43.41;99085.59;5023644;28;20476;-78
2021/09/18 09:41:55;;;;;;;2.72;1.15;;;;;;;13.19;42.81;99072.09;5055973;28;20052;-82
2021/09/18 09:44:28;;;;;;;1.20;1.10;;;;;;;13.49;42.39;99076.41;5007267;28;20412;-79
2021/09/18 09:47:03;;;;;;;2.60;1.10;;;;;;;14.33;42.84;99093.19;5055805;28;20048;-79
2021/09/18 09:49:45;;;;;;;1.17;1.00;;;;;;;14.00;42.94;99118.03;5043796;28;20044;-81
2021/09/18 09:52:20;;;;;;;1.40;1.30;;;;;;;12.64;48.42;99140.69;5023219;28;20138;-79
2021/09/18 09:54:47;;;;;;;0.70;0.70;;;;;;;11.44;51.74;99128.22;5089441;28;20048;-79
2021/09/18 09:57:13;;;;;;;2.40;0.88;;;;;;;10.77;54.47;99134.81;5037953;28;20089;-75
2021/09/18 09:59:40;;;;;;;0.80;0.80;;;;;;;10.24;55.61;99137.44;5038642;28;20082;-78
2021/09/18 10:02:07;;;;;;;1.05;0.60;;;;;;;9.83;56.96;99138.97;5038485;28;20045;-81
2021/09/18 10:04:33;;;;;;;0.77;0.77;;;;;;;9.85;57.45;99146.84;5038227;28;20047;-82
2021/09/18 10:07:00;;;;;;;3.60;1.10;;;;;;;10.38;56.66;99145.19;5005877;28;20136;-80
2021/09/18 10:09:26;;;;;;;5.75;1.15;;;;;;;10.87;55.28;99141.09;5071750;28;20044;-79
2021/09/18 10:11:53;;;;;;;0.88;0.80;;;;;;;11.13;54.75;99140.69;5022544;28;20052;-79
2021/09/18 10:14:21;;;;;;;1.08;0.70;;;;;;;11.31;54.14;99147.13;5038460;28;20080;-79
2021/09/18 10:16:48;;;;;;;1.83;0.70;;;;;;;11.21;52.42;99132.88;5022132;28;20067;-79
2021/09/18 10:25:32;;;;;;;0.77;0.77;;;;;;;13.09;48.28;99155.34;5046072;28;20407;-81
2021/09/18 10:28:14;;;;;;;0.40;0.40;;;;;;;12.33;49.74;99172.09;5060422;28;20036;-75
2021/09/18 10:30:42;;;;;;;0.47;0.47;;;;;;;11.60;52.23;99165.19;5057809;28;20040;-79
2021/09/18 10:33:34;;;;;;;0.90;0.68;;;;;;;10.70;55.48;99181.75;5041265;28;20098;-75
2021/09/18 10:36:17;;;;;;;0.60;0.60;;;;;;;10.03;58.45;99200.59;5057820;28;20048;-78
2021/09/18 10:39:07;;;;;;;0.60;0.60;;;;;;;9.31;62.00;99184.91;5076272;28;20360;-78
2021/09/18 10:41:50;;;;;;;0.40;0.40;;;;;;;9.16;62.15;99202.94;5041518;28;20131;-78
2021/09/18 10:44:18;;;;;;;1.13;0.32;;;;;;;8.92;61.54;99203.00;5041824;28;20048;-79
2021/09/18 10:46:53;;;;;;;1.00;0.50;;;;;;;8.67;61.39;99194.16;5057629;28;20064;-77
2021/09/18 10:49:37;;;;;;;0.40;0.40;;;;;;;8.71;60.79;99189.44;5057463;28;20048;-77
2021/09/18 10:52:20;;;;;;;0.60;0.60;;;;;;;9.60;60.03;99188.84;5074787;28;20075;-82
2021/09/18 10:55:05;;;;;;;0.50;0.50;;;;;;;10.42;56.28;99192.06;5110075;27;20384;-77
2021/09/18 10:57:45;;;;;;;2.70;0.55;;;;;;;10.99;56.60;99199.88;5172210;27;20126;-76
2021/09/18 11:00:23;;;;;;;0.50;0.50;;;;;;;11.05;55.88;99196.66;5061849;28;20915;-78
2021/09/18 11:03:03;;;;;;;0.43;0.43;;;;;;;10.79;56.94;99205.03;5112421;27;20395;-76
2021/09/18 11:05:42;;;;;;;0.70;0.70;;;;;;;10.91;57.06;99201.38;5110146;27;20383;-78
2021/09/18 11:08:35;;;;;;;1.55;0.52;;;;;;;11.00;56.92;99193.56;5109801;27;20121;-78
2021/09/18 11:11:14;;;;;;;0.45;0.45;;;;;;;11.03;57.35;99204.00;5109700;27;20391;-77
2021/09/18 11:13:54;;;;;;;0.60;0.60;;;;;;;10.83;58.51;99208.31;5069455;28;20387;-77
2021/09/18 11:16:36;;;;;;;2.83;0.60;;;;;;;10.52;58.68;99205.50;5109806;27;20380;-77
2021/09/18 11:19:17;;;;;;;0.73;0.70;;;;;;;10.19;57.92;99214.41;5084472;28;20898;-77
2021/09/18 11:21:56;;;;;;;0.50;0.50;;;;;;;9.84;58.46;99225.22;5109959;27;20392;-77
2021/09/18 11:24:35;;;;;;;0.43;0.43;;;;;;;9.51;59.49;99223.38;5110015;27;20392;-78
2021/09/18 11:27:34;;;;;;;0.65;0.65;;;;;;;9.52;60.88;99227.75;5109873;27;20388;-79
2021/09/18 11:30:12;;;;;;;0.63;0.60;;;;;;;9.69;60.50;99229.94;5109434;27;20381;-77
2021/09/18 11:32:51;;;;;;;0.68;0.63;;;;;;;9.68;60.70;99209.56;5110475;27;20388;-77
2021/09/18 11:35:29;;;;;;;1.75;1.00;;;;;;;9.90;60.80;99225.59;5105646;27;20397;-78
2021/09/18 11:38:08;;;;;;;2.15;1.00;;;;;;;10.45;59.81;99223.88;5110311;27;20392;-78
2021/09/18 11:40:47;;;;;;;2.15;0.82;;;;;;;11.34;57.08;99221.81;5171945;27;20469;-79
2021/09/18 11:43:26;;;;;;;0.93;0.60;;;;;;;12.32;56.89;99224.00;5109628;27;20743;-78
2021/09/18 11:46:04;;;;;;;1.30;0.80;;;;;;;13.02;51.37;99229.34;5109402;27;20391;-78
2021/09/18 11:48:41;;;;;;;4.18;1.73;;;;;;;14.04;50.36;99216.16;5105376;27;20399;-78
2021/09/18 11:52:01;;;;;;;1.23;0.70;;;;;;;15.35;48.24;99218.41;5102851;27;1457125;-79